sensor_id;sensor_type;location;lat;lon;timestamp;temperature;humidity
3275;DHT22;1649;53.672;10.064;2023-05-10T00:01:02;13.80;81.30
3275;DHT22;1649;53.672;10.064;2023-05-10T00:03:28;13.80;82.00
3275;DHT22;1649;53.672;10.064;2023-05-10T00:05:53;13.70;82.30
3275;DHT22;1649;53.672;10.064;2023-05-10T00:08:19;13.80;82.60
3275;DHT22;1649;53.672;10.064;2023-05-10T00:10:44;13.70;83.30
3275;DHT22;1649;53.672;10.064;2023-05-10T00:13:10;13.70;84.20
3275;DHT22;1649;53.672;10.064;2023-05-10T00:15:35;13.60;85.60
3275;DHT22;1649;53.672;10.064;2023-05-10T00:18:01;13.60;85.70
3275;DHT22;1649;53.672;10.064;2023-05-10T00:20:26;13.60;87.50
3275;DHT22;1649;53.672;10.064;2023-05-10T00:22:52;13.50;87.70
3275;DHT22;1649;53.672;10.064;2023-05-10T00:25:17;13.50;87.60
3275;DHT22;1649;53.672;10.064;2023-05-10T00:27:43;13.50;89.00
3275;DHT22;1649;53.672;10.064;2023-05-10T00:30:08;13.50;88.90
3275;DHT22;1649;53.672;10.064;2023-05-10T00:32:34;13.50;89.30
3275;DHT22;1649;53.672;10.064;2023-05-10T00:34:59;13.50;89.80
3275;DHT22;1649;53.672;10.064;2023-05-10T00:37:25;13.50;90.30
3275;DHT22;1649;53.672;10.064;2023-05-10T00:39:50;13.40;90.40
3275;DHT22;1649;53.672;10.064;2023-05-10T00:42:16;13.40;90.40
3275;DHT22;1649;53.672;10.064;2023-05-10T00:44:41;13.40;90.70
3275;DHT22;1649;53.672;10.064;2023-05-10T00:47:07;13.40;91.00
3275;DHT22;1649;53.672;10.064;2023-05-10T00:49:34;13.40;90.90
3275;DHT22;1649;53.672;10.064;2023-05-10T00:52:00;13.40;90.90
3275;DHT22;1649;53.672;10.064;2023-05-10T00:54:27;13.30;91.20
3275;DHT22;1649;53.672;10.064;2023-05-10T00:56:52;13.30;91.30
3275;DHT22;1649;53.672;10.064;2023-05-10T00:59:18;13.30;91.40
3275;DHT22;1649;53.672;10.064;2023-05-10T01:01:45;13.30;91.40
3275;DHT22;1649;53.672;10.064;2023-05-10T01:04:12;13.20;91.70
3275;DHT22;1649;53.672;10.064;2023-05-10T01:06:39;13.20;92.20
3275;DHT22;1649;53.672;10.064;2023-05-10T01:09:04;13.20;92.00
3275;DHT22;1649;53.672;10.064;2023-05-10T01:11:33;13.10;92.50
3275;DHT22;1649;53.672;10.064;2023-05-10T01:13:58;13.10;93.20
3275;DHT22;1649;53.672;10.064;2023-05-10T01:16:24;13.00;93.80
3275;DHT22;1649;53.672;10.064;2023-05-10T01:18:52;12.90;94.00
3275;DHT22;1649;53.672;10.064;2023-05-10T01:24:50;12.80;94.40
3275;DHT22;1649;53.672;10.064;2023-05-10T01:36:22;12.60;95.20
3275;DHT22;1649;53.672;10.064;2023-05-10T01:39:02;12.60;94.90
3275;DHT22;1649;53.672;10.064;2023-05-10T01:41:58;12.70;95.10
3275;DHT22;1649;53.672;10.064;2023-05-10T01:44:46;12.60;95.70
3275;DHT22;1649;53.672;10.064;2023-05-10T01:47:18;12.60;96.10
3275;DHT22;1649;53.672;10.064;2023-05-10T01:49:54;12.50;95.90
3275;DHT22;1649;53.672;10.064;2023-05-10T01:52:33;12.50;96.20
3275;DHT22;1649;53.672;10.064;2023-05-10T01:55:05;12.50;95.80
3275;DHT22;1649;53.672;10.064;2023-05-10T01:57:34;12.50;96.20
3275;DHT22;1649;53.672;10.064;2023-05-10T02:00:02;12.50;96.30
3275;DHT22;1649;53.672;10.064;2023-05-10T02:02:30;12.40;96.20
3275;DHT22;1649;53.672;10.064;2023-05-10T02:04:57;12.40;96.70
3275;DHT22;1649;53.672;10.064;2023-05-10T02:07:24;12.40;96.90
3275;DHT22;1649;53.672;10.064;2023-05-10T02:09:50;12.40;97.00
3275;DHT22;1649;53.672;10.064;2023-05-10T02:12:16;12.30;97.30
3275;DHT22;1649;53.672;10.064;2023-05-10T02:14:42;12.40;97.30
3275;DHT22;1649;53.672;10.064;2023-05-10T02:17:09;12.20;97.50
3275;DHT22;1649;53.672;10.064;2023-05-10T02:19:36;12.20;97.90
3275;DHT22;1649;53.672;10.064;2023-05-10T02:22:03;12.20;98.20
3275;DHT22;1649;53.672;10.064;2023-05-10T02:24:29;12.20;97.90
3275;DHT22;1649;53.672;10.064;2023-05-10T02:26:56;12.20;98.60
3275;DHT22;1649;53.672;10.064;2023-05-10T02:29:24;12.20;98.60
3275;DHT22;1649;53.672;10.064;2023-05-10T02:31:51;12.10;98.50
3275;DHT22;1649;53.672;10.064;2023-05-10T02:34:17;12.10;99.10
3275;DHT22;1649;53.672;10.064;2023-05-10T02:36:44;12.10;98.70
3275;DHT22;1649;53.672;10.064;2023-05-10T02:39:11;12.00;99.10
3275;DHT22;1649;53.672;10.064;2023-05-10T02:41:40;12.00;99.40
3275;DHT22;1649;53.672;10.064;2023-05-10T02:44:07;12.00;99.40
3275;DHT22;1649;53.672;10.064;2023-05-10T02:46:33;11.90;99.70
3275;DHT22;1649;53.672;10.064;2023-05-10T02:48:59;12.00;99.80
3275;DHT22;1649;53.672;10.064;2023-05-10T02:51:30;12.00;99.80
3275;DHT22;1649;53.672;10.064;2023-05-10T02:53:57;11.90;99.90
3275;DHT22;1649;53.672;10.064;2023-05-10T02:56:29;11.90;99.90
3275;DHT22;1649;53.672;10.064;2023-05-10T02:58:56;11.90;99.90
3275;DHT22;1649;53.672;10.064;2023-05-10T03:01:22;11.80;99.90
3275;DHT22;1649;53.672;10.064;2023-05-10T03:03:48;11.80;99.90
3275;DHT22;1649;53.672;10.064;2023-05-10T03:06:13;11.80;99.90
3275;DHT22;1649;53.672;10.064;2023-05-10T03:08:39;11.80;99.90
3275;DHT22;1649;53.672;10.064;2023-05-10T03:11:32;11.70;99.90
3275;DHT22;1649;53.672;10.064;2023-05-10T03:16:53;11.70;99.90
3275;DHT22;1649;53.672;10.064;2023-05-10T03:19:36;11.70;99.90
3275;DHT22;1649;53.672;10.064;2023-05-10T03:22:10;11.70;99.90
3275;DHT22;1649;53.672;10.064;2023-05-10T03:24:36;11.70;99.90
3275;DHT22;1649;53.672;10.064;2023-05-10T03:27:03;11.60;99.90
3275;DHT22;1649;53.672;10.064;2023-05-10T03:29:30;11.60;99.90
3275;DHT22;1649;53.672;10.064;2023-05-10T03:31:58;11.50;99.90
3275;DHT22;1649;53.672;10.064;2023-05-10T03:34:25;11.60;99.90
3275;DHT22;1649;53.672;10.064;2023-05-10T03:36:50;11.60;99.90
3275;DHT22;1649;53.672;10.064;2023-05-10T03:39:16;11.50;99.90
3275;DHT22;1649;53.672;10.064;2023-05-10T03:41:41;11.60;99.90
3275;DHT22;1649;53.672;10.064;2023-05-10T03:44:07;11.50;99.90
3275;DHT22;1649;53.672;10.064;2023-05-10T03:46:32;11.50;99.90
3275;DHT22;1649;53.672;10.064;2023-05-10T03:48:58;11.50;99.90
3275;DHT22;1649;53.672;10.064;2023-05-10T03:51:23;11.50;99.90
3275;DHT22;1649;53.672;10.064;2023-05-10T03:53:56;11.50;99.90
3275;DHT22;1649;53.672;10.064;2023-05-10T03:56:21;11.50;99.90
3275;DHT22;1649;53.672;10.064;2023-05-10T03:58:47;11.60;99.90
3275;DHT22;1649;53.672;10.064;2023-05-10T04:01:12;11.60;99.90
3275;DHT22;1649;53.672;10.064;2023-05-10T04:03:38;11.60;99.90
3275;DHT22;1649;53.672;10.064;2023-05-10T04:06:04;11.60;99.90
3275;DHT22;1649;53.672;10.064;2023-05-10T04:08:30;11.60;99.90
3275;DHT22;1649;53.672;10.064;2023-05-10T04:11:08;11.60;99.90
3275;DHT22;1649;53.672;10.064;2023-05-10T04:13:34;11.60;99.90
3275;DHT22;1649;53.672;10.064;2023-05-10T04:15:59;11.70;99.90
3275;DHT22;1649;53.672;10.064;2023-05-10T04:18:25;11.60;99.90
3275;DHT22;1649;53.672;10.064;2023-05-10T04:20:51;11.70;99.90
3275;DHT22;1649;53.672;10.064;2023-05-10T04:23:16;11.70;99.90
3275;DHT22;1649;53.672;10.064;2023-05-10T04:25:42;11.70;99.90
3275;DHT22;1649;53.672;10.064;2023-05-10T04:28:07;11.70;99.90
3275;DHT22;1649;53.672;10.064;2023-05-10T04:30:33;11.80;99.90
3275;DHT22;1649;53.672;10.064;2023-05-10T04:32:58;11.80;99.90
3275;DHT22;1649;53.672;10.064;2023-05-10T04:35:24;11.80;99.90
3275;DHT22;1649;53.672;10.064;2023-05-10T04:37:49;11.80;99.90
3275;DHT22;1649;53.672;10.064;2023-05-10T04:40:15;11.90;99.90
3275;DHT22;1649;53.672;10.064;2023-05-10T04:42:40;11.90;99.90
3275;DHT22;1649;53.672;10.064;2023-05-10T04:45:07;11.90;99.90
3275;DHT22;1649;53.672;10.064;2023-05-10T04:47:32;11.90;99.90
3275;DHT22;1649;53.672;10.064;2023-05-10T04:49:58;12.00;99.90
3275;DHT22;1649;53.672;10.064;2023-05-10T04:52:24;12.00;99.90
3275;DHT22;1649;53.672;10.064;2023-05-10T04:54:49;12.10;99.90
3275;DHT22;1649;53.672;10.064;2023-05-10T04:57:14;12.10;99.90
3275;DHT22;1649;53.672;10.064;2023-05-10T04:59:40;12.10;99.90
3275;DHT22;1649;53.672;10.064;2023-05-10T05:02:06;12.10;99.90
3275;DHT22;1649;53.672;10.064;2023-05-10T05:04:31;12.10;99.90
3275;DHT22;1649;53.672;10.064;2023-05-10T05:06:57;12.20;99.90
3275;DHT22;1649;53.672;10.064;2023-05-10T05:09:22;12.30;99.90
3275;DHT22;1649;53.672;10.064;2023-05-10T05:11:48;12.40;99.90
3275;DHT22;1649;53.672;10.064;2023-05-10T05:14:13;12.60;99.90
3275;DHT22;1649;53.672;10.064;2023-05-10T05:16:39;12.70;99.90
3275;DHT22;1649;53.672;10.064;2023-05-10T05:19:04;12.90;99.90
3275;DHT22;1649;53.672;10.064;2023-05-10T05:21:30;12.90;99.90
3275;DHT22;1649;53.672;10.064;2023-05-10T05:23:57;12.90;99.90
3275;DHT22;1649;53.672;10.064;2023-05-10T05:26:22;13.00;99.90
3275;DHT22;1649;53.672;10.064;2023-05-10T05:28:48;13.00;99.90
3275;DHT22;1649;53.672;10.064;2023-05-10T05:31:16;13.10;99.90
3275;DHT22;1649;53.672;10.064;2023-05-10T05:33:43;13.20;99.90
3275;DHT22;1649;53.672;10.064;2023-05-10T05:36:08;13.30;99.90
3275;DHT22;1649;53.672;10.064;2023-05-10T05:38:34;13.40;99.90
3275;DHT22;1649;53.672;10.064;2023-05-10T05:41:00;13.40;99.90
3275;DHT22;1649;53.672;10.064;2023-05-10T05:43:25;13.30;99.70
3275;DHT22;1649;53.672;10.064;2023-05-10T05:45:54;13.30;99.30
3275;DHT22;1649;53.672;10.064;2023-05-10T05:48:20;13.30;99.00
3275;DHT22;1649;53.672;10.064;2023-05-10T05:50:45;13.30;99.20
3275;DHT22;1649;53.672;10.064;2023-05-10T05:53:11;13.30;99.20
3275;DHT22;1649;53.672;10.064;2023-05-10T05:55:36;13.30;99.80
3275;DHT22;1649;53.672;10.064;2023-05-10T05:58:02;13.40;99.30
3275;DHT22;1649;53.672;10.064;2023-05-10T06:00:28;13.50;98.90
3275;DHT22;1649;53.672;10.064;2023-05-10T06:02:53;13.60;99.90
3275;DHT22;1649;53.672;10.064;2023-05-10T06:05:19;13.70;99.90
3275;DHT22;1649;53.672;10.064;2023-05-10T06:07:45;13.60;97.80
3275;DHT22;1649;53.672;10.064;2023-05-10T06:10:11;13.70;98.40
3275;DHT22;1649;53.672;10.064;2023-05-10T06:12:36;13.70;98.20
3275;DHT22;1649;53.672;10.064;2023-05-10T06:15:03;13.90;98.10
3275;DHT22;1649;53.672;10.064;2023-05-10T06:17:28;14.10;98.00
3275;DHT22;1649;53.672;10.064;2023-05-10T06:19:54;14.30;96.80
3275;DHT22;1649;53.672;10.064;2023-05-10T06:22:20;14.50;97.70
3275;DHT22;1649;53.672;10.064;2023-05-10T06:24:48;14.60;96.20
3275;DHT22;1649;53.672;10.064;2023-05-10T06:27:13;14.70;98.00
3275;DHT22;1649;53.672;10.064;2023-05-10T06:29:39;14.70;95.80
3275;DHT22;1649;53.672;10.064;2023-05-10T06:32:04;14.90;97.00
3275;DHT22;1649;53.672;10.064;2023-05-10T06:34:30;15.10;96.40
3275;DHT22;1649;53.672;10.064;2023-05-10T06:36:55;15.10;94.90
3275;DHT22;1649;53.672;10.064;2023-05-10T06:39:21;15.10;94.90
3275;DHT22;1649;53.672;10.064;2023-05-10T06:41:46;15.20;95.20
3275;DHT22;1649;53.672;10.064;2023-05-10T06:44:12;15.20;95.60
3275;DHT22;1649;53.672;10.064;2023-05-10T06:46:38;15.10;95.30
3275;DHT22;1649;53.672;10.064;2023-05-10T06:49:03;15.10;94.70
3275;DHT22;1649;53.672;10.064;2023-05-10T06:51:29;15.60;94.30
3275;DHT22;1649;53.672;10.064;2023-05-10T06:53:55;15.90;93.90
3275;DHT22;1649;53.672;10.064;2023-05-10T06:56:20;16.00;93.70
3275;DHT22;1649;53.672;10.064;2023-05-10T06:58:47;16.00;93.60
3275;DHT22;1649;53.672;10.064;2023-05-10T07:01:13;16.10;94.30
3275;DHT22;1649;53.672;10.064;2023-05-10T07:03:38;16.20;93.70
3275;DHT22;1649;53.672;10.064;2023-05-10T07:06:04;16.00;93.50
3275;DHT22;1649;53.672;10.064;2023-05-10T07:08:30;15.90;93.70
3275;DHT22;1649;53.672;10.064;2023-05-10T07:11:00;16.00;95.80
3275;DHT22;1649;53.672;10.064;2023-05-10T07:13:26;16.40;94.00
3275;DHT22;1649;53.672;10.064;2023-05-10T07:15:52;16.90;93.90
3275;DHT22;1649;53.672;10.064;2023-05-10T07:18:17;16.90;92.90
3275;DHT22;1649;53.672;10.064;2023-05-10T07:20:43;16.70;92.10
3275;DHT22;1649;53.672;10.064;2023-05-10T07:23:08;16.60;92.50
3275;DHT22;1649;53.672;10.064;2023-05-10T07:25:33;16.80;93.40
3275;DHT22;1649;53.672;10.064;2023-05-10T07:27:59;17.20;92.60
3275;DHT22;1649;53.672;10.064;2023-05-10T07:30:24;17.30;92.10
3275;DHT22;1649;53.672;10.064;2023-05-10T07:32:50;17.20;92.10
3275;DHT22;1649;53.672;10.064;2023-05-10T07:35:15;17.30;92.60
3275;DHT22;1649;53.672;10.064;2023-05-10T07:37:41;17.60;92.10
3275;DHT22;1649;53.672;10.064;2023-05-10T07:40:07;17.50;91.00
3275;DHT22;1649;53.672;10.064;2023-05-10T07:42:32;17.50;91.30
3275;DHT22;1649;53.672;10.064;2023-05-10T07:44:58;17.40;92.10
3275;DHT22;1649;53.672;10.064;2023-05-10T07:47:23;17.20;92.10
3275;DHT22;1649;53.672;10.064;2023-05-10T07:49:49;17.20;92.10
3275;DHT22;1649;53.672;10.064;2023-05-10T07:52:14;17.30;92.10
3275;DHT22;1649;53.672;10.064;2023-05-10T07:54:40;17.10;91.80
3275;DHT22;1649;53.672;10.064;2023-05-10T07:57:06;17.00;94.00
3275;DHT22;1649;53.672;10.064;2023-05-10T07:59:31;17.20;92.70
3275;DHT22;1649;53.672;10.064;2023-05-10T08:01:57;17.50;92.40
3275;DHT22;1649;53.672;10.064;2023-05-10T08:04:23;17.70;93.10
3275;DHT22;1649;53.672;10.064;2023-05-10T08:06:49;17.80;91.50
3275;DHT22;1649;53.672;10.064;2023-05-10T08:09:15;18.20;91.20
3275;DHT22;1649;53.672;10.064;2023-05-10T08:11:41;18.20;92.20
3275;DHT22;1649;53.672;10.064;2023-05-10T08:14:06;18.30;91.90
3275;DHT22;1649;53.672;10.064;2023-05-10T08:16:32;18.40;90.80
3275;DHT22;1649;53.672;10.064;2023-05-10T08:18:57;18.20;91.50
3275;DHT22;1649;53.672;10.064;2023-05-10T08:21:23;18.10;91.50
3275;DHT22;1649;53.672;10.064;2023-05-10T08:23:48;18.00;91.40
3275;DHT22;1649;53.672;10.064;2023-05-10T08:26:14;18.00;91.00
3275;DHT22;1649;53.672;10.064;2023-05-10T08:28:40;17.60;92.10
3275;DHT22;1649;53.672;10.064;2023-05-10T08:31:05;17.60;92.30
3275;DHT22;1649;53.672;10.064;2023-05-10T08:33:31;17.40;92.00
3275;DHT22;1649;53.672;10.064;2023-05-10T08:35:56;17.20;92.60
3275;DHT22;1649;53.672;10.064;2023-05-10T08:38:22;17.20;93.10
3275;DHT22;1649;53.672;10.064;2023-05-10T08:40:49;17.00;92.60
3275;DHT22;1649;53.672;10.064;2023-05-10T08:43:16;17.30;92.90
3275;DHT22;1649;53.672;10.064;2023-05-10T08:45:44;17.40;92.70
3275;DHT22;1649;53.672;10.064;2023-05-10T08:48:12;17.70;93.10
3275;DHT22;1649;53.672;10.064;2023-05-10T08:50:39;18.00;92.00
3275;DHT22;1649;53.672;10.064;2023-05-10T08:53:09;18.20;92.10
3275;DHT22;1649;53.672;10.064;2023-05-10T08:55:35;18.00;91.20
3275;DHT22;1649;53.672;10.064;2023-05-10T08:58:04;18.00;91.30
3275;DHT22;1649;53.672;10.064;2023-05-10T09:00:29;17.80;91.10
3275;DHT22;1649;53.672;10.064;2023-05-10T09:02:56;17.60;92.20
3275;DHT22;1649;53.672;10.064;2023-05-10T09:05:22;17.70;92.90
3275;DHT22;1649;53.672;10.064;2023-05-10T09:07:48;17.80;92.10
3275;DHT22;1649;53.672;10.064;2023-05-10T09:10:15;17.80;91.40
3275;DHT22;1649;53.672;10.064;2023-05-10T09:12:41;18.00;92.20
3275;DHT22;1649;53.672;10.064;2023-05-10T09:15:07;18.10;91.90
3275;DHT22;1649;53.672;10.064;2023-05-10T09:17:34;18.10;92.20
3275;DHT22;1649;53.672;10.064;2023-05-10T09:20:01;18.20;91.60
3275;DHT22;1649;53.672;10.064;2023-05-10T09:22:27;18.30;91.70
3275;DHT22;1649;53.672;10.064;2023-05-10T09:27:32;18.40;91.90
3275;DHT22;1649;53.672;10.064;2023-05-10T09:29:57;18.30;91.60
3275;DHT22;1649;53.672;10.064;2023-05-10T09:32:39;17.90;91.30
3275;DHT22;1649;53.672;10.064;2023-05-10T09:35:09;17.50;92.30
3275;DHT22;1649;53.672;10.064;2023-05-10T09:37:35;17.40;92.20
3275;DHT22;1649;53.672;10.064;2023-05-10T09:40:04;17.30;92.90
3275;DHT22;1649;53.672;10.064;2023-05-10T09:42:30;17.40;92.40
3275;DHT22;1649;53.672;10.064;2023-05-10T09:45:01;17.30;92.70
3275;DHT22;1649;53.672;10.064;2023-05-10T09:47:26;17.20;92.20
3275;DHT22;1649;53.672;10.064;2023-05-10T09:49:53;17.20;92.70
3275;DHT22;1649;53.672;10.064;2023-05-10T09:52:20;17.10;92.80
3275;DHT22;1649;53.672;10.064;2023-05-10T09:54:53;17.00;93.10
3275;DHT22;1649;53.672;10.064;2023-05-10T09:57:21;17.00;93.00
3275;DHT22;1649;53.672;10.064;2023-05-10T09:59:47;17.00;93.40
3275;DHT22;1649;53.672;10.064;2023-05-10T10:02:13;17.20;93.70
3275;DHT22;1649;53.672;10.064;2023-05-10T10:04:40;17.50;93.70
3275;DHT22;1649;53.672;10.064;2023-05-10T10:07:06;17.70;93.90
3275;DHT22;1649;53.672;10.064;2023-05-10T10:09:32;17.70;92.80
3275;DHT22;1649;53.672;10.064;2023-05-10T10:12:02;17.60;93.60
3275;DHT22;1649;53.672;10.064;2023-05-10T10:14:29;17.40;93.20
3275;DHT22;1649;53.672;10.064;2023-05-10T10:16:55;17.20;93.80
3275;DHT22;1649;53.672;10.064;2023-05-10T10:19:21;17.00;94.60
3275;DHT22;1649;53.672;10.064;2023-05-10T10:21:50;16.80;95.90
3275;DHT22;1649;53.672;10.064;2023-05-10T10:24:16;16.60;96.90
3275;DHT22;1649;53.672;10.064;2023-05-10T10:26:42;16.40;99.90
3275;DHT22;1649;53.672;10.064;2023-05-10T10:29:36;16.20;99.90
3275;DHT22;1649;53.672;10.064;2023-05-10T10:35:00;15.70;99.90
3275;DHT22;1649;53.672;10.064;2023-05-10T10:37:46;15.40;99.90
3275;DHT22;1649;53.672;10.064;2023-05-10T10:40:32;15.00;99.90
3275;DHT22;1649;53.672;10.064;2023-05-10T10:42:58;14.70;99.90
3275;DHT22;1649;53.672;10.064;2023-05-10T10:45:43;14.60;99.90
3275;DHT22;1649;53.672;10.064;2023-05-10T10:48:25;14.50;99.90
3275;DHT22;1649;53.672;10.064;2023-05-10T10:50:57;14.30;99.90
3275;DHT22;1649;53.672;10.064;2023-05-10T10:53:26;14.20;99.90
3275;DHT22;1649;53.672;10.064;2023-05-10T10:56:05;14.10;99.90
3275;DHT22;1649;53.672;10.064;2023-05-10T10:58:33;14.10;99.90
3275;DHT22;1649;53.672;10.064;2023-05-10T11:01:14;14.00;99.90
3275;DHT22;1649;53.672;10.064;2023-05-10T11:03:40;14.00;99.90
3275;DHT22;1649;53.672;10.064;2023-05-10T11:06:06;14.00;99.90
3275;DHT22;1649;53.672;10.064;2023-05-10T11:08:39;13.90;99.90
3275;DHT22;1649;53.672;10.064;2023-05-10T11:11:06;13.90;99.90
3275;DHT22;1649;53.672;10.064;2023-05-10T11:13:44;14.00;99.90
3275;DHT22;1649;53.672;10.064;2023-05-10T11:16:23;14.00;99.90
3275;DHT22;1649;53.672;10.064;2023-05-10T11:19:03;14.00;99.90
3275;DHT22;1649;53.672;10.064;2023-05-10T11:21:33;13.90;99.90
3275;DHT22;1649;53.672;10.064;2023-05-10T11:24:00;13.90;99.90
3275;DHT22;1649;53.672;10.064;2023-05-10T11:26:34;13.90;99.90
3275;DHT22;1649;53.672;10.064;2023-05-10T11:29:00;13.90;99.90
3275;DHT22;1649;53.672;10.064;2023-05-10T11:31:27;14.10;99.90
3275;DHT22;1649;53.672;10.064;2023-05-10T11:33:57;14.20;99.90
3275;DHT22;1649;53.672;10.064;2023-05-10T11:36:25;14.30;99.90
3275;DHT22;1649;53.672;10.064;2023-05-10T11:38:51;14.30;99.90
3275;DHT22;1649;53.672;10.064;2023-05-10T11:41:18;14.10;99.90
3275;DHT22;1649;53.672;10.064;2023-05-10T11:43:46;14.10;99.90
3275;DHT22;1649;53.672;10.064;2023-05-10T11:46:14;14.10;99.90
3275;DHT22;1649;53.672;10.064;2023-05-10T11:48:40;14.10;99.90
3275;DHT22;1649;53.672;10.064;2023-05-10T11:51:10;14.10;99.90
3275;DHT22;1649;53.672;10.064;2023-05-10T11:53:36;14.10;99.90
3275;DHT22;1649;53.672;10.064;2023-05-10T11:56:09;14.10;99.90
3275;DHT22;1649;53.672;10.064;2023-05-10T11:58:36;14.20;99.90
3275;DHT22;1649;53.672;10.064;2023-05-10T12:01:03;14.40;99.90
3275;DHT22;1649;53.672;10.064;2023-05-10T12:03:29;14.40;99.90
3275;DHT22;1649;53.672;10.064;2023-05-10T12:05:56;14.30;99.90
3275;DHT22;1649;53.672;10.064;2023-05-10T12:08:23;14.30;99.90
3275;DHT22;1649;53.672;10.064;2023-05-10T12:10:50;14.40;99.90
3275;DHT22;1649;53.672;10.064;2023-05-10T12:13:15;14.50;99.90
3275;DHT22;1649;53.672;10.064;2023-05-10T12:15:42;14.50;99.90
3275;DHT22;1649;53.672;10.064;2023-05-10T12:18:09;14.60;99.90
3275;DHT22;1649;53.672;10.064;2023-05-10T12:20:36;14.70;99.90
3275;DHT22;1649;53.672;10.064;2023-05-10T12:23:02;14.60;99.90
3275;DHT22;1649;53.672;10.064;2023-05-10T12:25:36;14.60;99.90
3275;DHT22;1649;53.672;10.064;2023-05-10T12:28:09;14.80;99.90
3275;DHT22;1649;53.672;10.064;2023-05-10T12:30:35;14.80;99.90
3275;DHT22;1649;53.672;10.064;2023-05-10T12:33:07;14.80;99.90
3275;DHT22;1649;53.672;10.064;2023-05-10T12:35:33;14.70;99.90
3275;DHT22;1649;53.672;10.064;2023-05-10T12:38:38;14.70;99.90
3275;DHT22;1649;53.672;10.064;2023-05-10T12:41:06;14.50;99.90
3275;DHT22;1649;53.672;10.064;2023-05-10T12:43:32;14.30;99.90
3275;DHT22;1649;53.672;10.064;2023-05-10T12:45:58;14.40;99.90
3275;DHT22;1649;53.672;10.064;2023-05-10T12:48:24;14.50;99.90
3275;DHT22;1649;53.672;10.064;2023-05-10T12:50:50;14.60;99.90
3275;DHT22;1649;53.672;10.064;2023-05-10T12:53:16;14.80;99.90
3275;DHT22;1649;53.672;10.064;2023-05-10T12:55:42;14.90;99.90
3275;DHT22;1649;53.672;10.064;2023-05-10T12:58:08;15.00;99.90
3275;DHT22;1649;53.672;10.064;2023-05-10T13:00:33;15.10;99.90
3275;DHT22;1649;53.672;10.064;2023-05-10T13:02:59;15.30;99.90
3275;DHT22;1649;53.672;10.064;2023-05-10T13:05:24;15.40;99.90
3275;DHT22;1649;53.672;10.064;2023-05-10T13:07:50;15.60;99.90
3275;DHT22;1649;53.672;10.064;2023-05-10T13:10:16;15.60;99.90
3275;DHT22;1649;53.672;10.064;2023-05-10T13:12:41;15.50;99.90
3275;DHT22;1649;53.672;10.064;2023-05-10T13:15:07;15.60;99.90
3275;DHT22;1649;53.672;10.064;2023-05-10T13:17:33;15.90;99.90
3275;DHT22;1649;53.672;10.064;2023-05-10T13:19:58;15.90;99.90
3275;DHT22;1649;53.672;10.064;2023-05-10T13:22:24;16.00;99.90
3275;DHT22;1649;53.672;10.064;2023-05-10T13:24:49;16.00;99.90
3275;DHT22;1649;53.672;10.064;2023-05-10T13:27:15;15.90;99.90
3275;DHT22;1649;53.672;10.064;2023-05-10T13:29:40;15.90;99.90
3275;DHT22;1649;53.672;10.064;2023-05-10T13:32:06;16.00;99.90
3275;DHT22;1649;53.672;10.064;2023-05-10T13:34:31;16.10;99.90
3275;DHT22;1649;53.672;10.064;2023-05-10T13:36:57;16.40;99.90
3275;DHT22;1649;53.672;10.064;2023-05-10T13:39:23;16.50;99.90
3275;DHT22;1649;53.672;10.064;2023-05-10T13:41:48;16.50;99.90
3275;DHT22;1649;53.672;10.064;2023-05-10T13:44:14;16.60;99.90
3275;DHT22;1649;53.672;10.064;2023-05-10T13:46:41;16.90;99.90
3275;DHT22;1649;53.672;10.064;2023-05-10T13:49:08;16.90;99.90
3275;DHT22;1649;53.672;10.064;2023-05-10T13:51:34;17.20;99.90
3275;DHT22;1649;53.672;10.064;2023-05-10T13:54:03;17.20;99.90
3275;DHT22;1649;53.672;10.064;2023-05-10T13:56:29;17.20;99.90
3275;DHT22;1649;53.672;10.064;2023-05-10T13:58:56;17.20;99.90
3275;DHT22;1649;53.672;10.064;2023-05-10T14:01:22;17.20;99.90
3275;DHT22;1649;53.672;10.064;2023-05-10T14:03:48;17.10;99.90
3275;DHT22;1649;53.672;10.064;2023-05-10T14:06:13;17.20;99.90
3275;DHT22;1649;53.672;10.064;2023-05-10T14:08:39;17.20;99.90
3275;DHT22;1649;53.672;10.064;2023-05-10T14:11:05;17.30;99.90
3275;DHT22;1649;53.672;10.064;2023-05-10T14:13:30;17.20;99.90
3275;DHT22;1649;53.672;10.064;2023-05-10T14:15:56;17.20;99.90
3275;DHT22;1649;53.672;10.064;2023-05-10T14:18:22;17.10;99.90
3275;DHT22;1649;53.672;10.064;2023-05-10T14:20:47;17.10;99.90
3275;DHT22;1649;53.672;10.064;2023-05-10T14:23:13;17.00;99.90
3275;DHT22;1649;53.672;10.064;2023-05-10T14:25:41;16.90;99.90
3275;DHT22;1649;53.672;10.064;2023-05-10T14:28:07;16.80;99.90
3275;DHT22;1649;53.672;10.064;2023-05-10T14:30:32;16.80;99.90
3275;DHT22;1649;53.672;10.064;2023-05-10T14:33:00;16.90;99.90
3275;DHT22;1649;53.672;10.064;2023-05-10T14:35:26;16.90;99.90
3275;DHT22;1649;53.672;10.064;2023-05-10T14:37:52;16.90;99.90
3275;DHT22;1649;53.672;10.064;2023-05-10T14:40:17;16.90;99.90
3275;DHT22;1649;53.672;10.064;2023-05-10T14:42:44;16.90;99.90
3275;DHT22;1649;53.672;10.064;2023-05-10T14:45:10;16.80;99.90
3275;DHT22;1649;53.672;10.064;2023-05-10T14:47:36;16.90;99.90
3275;DHT22;1649;53.672;10.064;2023-05-10T14:50:01;16.80;99.90
3275;DHT22;1649;53.672;10.064;2023-05-10T14:52:27;16.70;99.90
3275;DHT22;1649;53.672;10.064;2023-05-10T14:54:53;16.50;99.90
3275;DHT22;1649;53.672;10.064;2023-05-10T14:57:18;16.50;99.90
3275;DHT22;1649;53.672;10.064;2023-05-10T14:59:44;16.70;99.90
3275;DHT22;1649;53.672;10.064;2023-05-10T15:02:10;16.70;99.90
3275;DHT22;1649;53.672;10.064;2023-05-10T15:04:35;16.70;99.90
3275;DHT22;1649;53.672;10.064;2023-05-10T15:07:01;16.70;99.90
3275;DHT22;1649;53.672;10.064;2023-05-10T15:09:26;16.60;99.90
3275;DHT22;1649;53.672;10.064;2023-05-10T15:11:55;16.60;99.90
3275;DHT22;1649;53.672;10.064;2023-05-10T15:14:22;16.60;99.90
3275;DHT22;1649;53.672;10.064;2023-05-10T15:16:47;16.70;99.90
3275;DHT22;1649;53.672;10.064;2023-05-10T15:19:13;16.80;99.90
3275;DHT22;1649;53.672;10.064;2023-05-10T15:21:38;17.00;99.90
3275;DHT22;1649;53.672;10.064;2023-05-10T15:24:07;17.00;99.90
3275;DHT22;1649;53.672;10.064;2023-05-10T15:26:33;17.00;99.90
3275;DHT22;1649;53.672;10.064;2023-05-10T15:28:59;17.00;99.90
3275;DHT22;1649;53.672;10.064;2023-05-10T15:31:25;16.90;99.90
3275;DHT22;1649;53.672;10.064;2023-05-10T15:33:50;16.90;99.90
3275;DHT22;1649;53.672;10.064;2023-05-10T15:36:16;16.90;99.90
3275;DHT22;1649;53.672;10.064;2023-05-10T15:38:43;17.10;99.90
3275;DHT22;1649;53.672;10.064;2023-05-10T15:41:08;17.10;99.90
3275;DHT22;1649;53.672;10.064;2023-05-10T15:43:34;17.10;99.90
3275;DHT22;1649;53.672;10.064;2023-05-10T15:46:00;17.20;99.90
3275;DHT22;1649;53.672;10.064;2023-05-10T15:48:25;17.20;99.90
3275;DHT22;1649;53.672;10.064;2023-05-10T15:50:51;17.30;99.90
3275;DHT22;1649;53.672;10.064;2023-05-10T15:53:16;17.50;99.90
3275;DHT22;1649;53.672;10.064;2023-05-10T15:55:43;17.40;99.90
3275;DHT22;1649;53.672;10.064;2023-05-10T15:58:08;17.50;99.90
3275;DHT22;1649;53.672;10.064;2023-05-10T16:00:33;17.50;99.90
3275;DHT22;1649;53.672;10.064;2023-05-10T16:03:00;17.50;99.90
3275;DHT22;1649;53.672;10.064;2023-05-10T16:05:25;17.50;99.90